Time;durP1;ratioP1;P1;durP2;ratioP2;P2;SDS_P1;SDS_P2;PMS_P1;PMS_P2;Temp;Humidity;BMP_temperature;BMP_pressure;BME280_temperature;BME280_humidity;BME280_pressure;Samples;Min_cycle;Max_cycle;Signal;HPM_P1;HPM_P2
2021/07/12 00:02:00;;;;;;;5.97;4.25;;;;;;;23.00;63.05;100041.50;6101461;23;20022;-70
2021/07/12 00:04:25;;;;;;;8.02;4.78;;;;;;;22.96;63.25;100045.88;6102032;23;20036;-67
2021/07/12 00:06:51;;;;;;;8.23;4.78;;;;;;;22.92;63.11;100045.28;6101659;23;20002;-68
2021/07/12 00:09:16;;;;;;;8.65;4.53;;;;;;;22.89;63.52;100041.34;6101766;23;20006;-68
2021/07/12 00:11:42;;;;;;;5.68;4.57;;;;;;;22.88;63.41;100047.56;6101766;23;20259;-70
2021/07/12 00:14:08;;;;;;;5.07;4.32;;;;;;;22.87;63.13;100046.78;6101720;23;20009;-69
2021/07/12 00:16:33;;;;;;;7.55;4.25;;;;;;;22.86;63.35;100042.34;6101385;23;20034;-69
2021/07/12 00:18:59;;;;;;;5.07;4.47;;;;;;;22.80;63.62;100038.56;6101698;23;20020;-70
2021/07/12 00:21:24;;;;;;;4.78;4.28;;;;;;;22.75;63.55;100034.31;6101065;23;20003;-69
2021/07/12 00:23:50;;;;;;;6.13;4.07;;;;;;;22.70;64.05;100039.94;6101442;23;20006;-70
2021/07/12 00:26:17;;;;;;;5.40;4.35;;;;;;;22.68;64.34;100036.78;6076285;23;20054;-70
2021/07/12 00:28:42;;;;;;;8.85;4.45;;;;;;;22.65;64.42;100047.16;6101635;23;20006;-70
2021/07/12 00:31:07;;;;;;;5.18;4.45;;;;;;;22.62;64.60;100036.69;6101033;23;20085;-70
2021/07/12 00:33:33;;;;;;;7.38;4.47;;;;;;;22.58;64.95;100033.25;6101697;23;20405;-70
2021/07/12 00:35:59;;;;;;;4.88;4.47;;;;;;;22.56;64.67;100035.81;6076366;23;20030;-70
2021/07/12 00:38:25;;;;;;;5.43;4.55;;;;;;;22.56;65.07;100027.22;6076087;23;20014;-68
2021/07/12 00:40:50;;;;;;;4.55;4.00;;;;;;;22.57;64.80;100028.78;6101347;23;20278;-67
2021/07/12 00:43:16;;;;;;;6.03;4.38;;;;;;;22.59;64.91;100025.44;6101351;23;20331;-70
2021/07/12 00:45:41;;;;;;;5.10;4.65;;;;;;;22.57;64.87;100019.41;6101358;23;20013;-71
2021/07/12 00:48:07;;;;;;;7.82;5.00;;;;;;;22.51;64.94;100022.97;6101267;23;20240;-70
2021/07/12 00:50:35;;;;;;;7.43;5.47;;;;;;;22.45;65.36;100024.94;6101312;23;20006;-67
2021/07/12 00:53:02;;;;;;;5.63;5.05;;;;;;;22.40;65.60;100019.09;6101467;23;20009;-70
2021/07/12 00:55:31;;;;;;;5.50;4.88;;;;;;;22.37;65.73;100020.88;6101503;23;20053;-70
2021/07/12 00:57:57;;;;;;;9.07;5.40;;;;;;;22.31;65.79;100022.09;6101352;23;20010;-71
2021/07/12 01:00:24;;;;;;;7.10;5.28;;;;;;;22.28;66.09;100021.00;6101406;23;20057;-70
2021/07/12 01:02:51;;;;;;;6.72;4.95;;;;;;;22.29;65.90;100016.06;6101314;23;20013;-70
2021/07/12 01:05:19;;;;;;;6.05;5.13;;;;;;;22.27;66.01;100022.28;6076046;23;20028;-70
2021/07/12 01:07:45;;;;;;;7.97;5.53;;;;;;;22.24;66.17;100019.63;6101156;23;20077;-70
2021/07/12 01:10:12;;;;;;;7.30;5.25;;;;;;;22.20;66.29;100017.75;6075863;23;20002;-70
2021/07/12 01:12:38;;;;;;;6.45;5.10;;;;;;;22.16;66.39;100027.78;6101078;23;19999;-70
2021/07/12 01:15:10;;;;;;;6.47;4.95;;;;;;;22.17;66.37;100023.63;6100939;23;20053;-70
2021/07/12 01:18:08;;;;;;;6.63;5.10;;;;;;;22.14;66.57;100013.97;6100935;23;20062;-69
2021/07/12 01:21:02;;;;;;;6.55;5.38;;;;;;;22.13;66.46;100009.53;6053245;23;20397;-67
2021/07/12 01:23:57;;;;;;;7.15;5.07;;;;;;;22.13;66.44;100015.25;6101124;23;20014;-69
2021/07/12 01:26:53;;;;;;;7.15;5.35;;;;;;;22.14;66.65;100016.81;6075433;23;20006;-69
2021/07/12 01:29:27;;;;;;;8.05;5.43;;;;;;;22.11;66.58;100028.47;6100779;23;20080;-69
2021/07/12 01:32:10;;;;;;;5.47;4.85;;;;;;;22.08;66.54;100023.72;6100711;23;20002;-69
2021/07/12 01:35:04;;;;;;;6.60;4.95;;;;;;;22.01;66.81;100029.81;6073843;23;20018;-68
2021/07/12 01:37:55;;;;;;;6.30;5.13;;;;;;;21.99;67.15;100024.59;6075445;23;20089;-71
2021/07/12 01:40:49;;;;;;;5.60;4.85;;;;;;;21.95;67.18;100020.34;6100914;23;20008;-70
2021/07/12 01:43:26;;;;;;;6.20;5.38;;;;;;;21.91;67.52;100034.81;6075338;23;20389;-70
2021/07/12 01:46:26;;;;;;;5.78;5.20;;;;;;;21.92;67.10;100072.81;6100735;23;20002;-70
2021/07/12 01:49:16;;;;;;;5.75;5.20;;;;;;;21.99;67.08;100081.03;6075497;23;20002;-70
2021/07/12 01:51:49;;;;;;;5.35;4.50;;;;;;;21.98;66.94;100053.69;6100851;23;20384;-71
2021/07/12 01:54:33;;;;;;;9.80;5.38;;;;;;;21.88;67.45;100059.47;6100696;23;20266;-70
2021/07/12 01:57:07;;;;;;;6.05;5.25;;;;;;;21.85;67.30;100083.34;6075267;23;20057;-69
2021/07/12 01:59:49;;;;;;;5.75;4.82;;;;;;;21.86;67.29;100092.72;6100866;23;20010;-70
2021/07/12 02:02:15;;;;;;;6.82;4.82;;;;;;;21.86;67.41;100069.81;6100608;23;20007;-69
2021/07/12 02:04:42;;;;;;;5.75;5.25;;;;;;;21.83;67.61;100063.00;6100682;23;20252;-67
2021/07/12 02:07:11;;;;;;;6.05;5.05;;;;;;;21.78;67.69;100100.09;6100415;23;20033;-68
2021/07/12 02:09:38;;;;;;;7.60;5.20;;;;;;;21.85;67.50;100114.00;6100748;23;20003;-69
2021/07/12 02:12:05;;;;;;;7.25;5.35;;;;;;;21.84;67.51;100098.13;6100317;23;20434;-69
2021/07/12 02:14:31;;;;;;;6.97;4.93;;;;;;;21.81;67.75;100085.59;6100435;23;20006;-69
2021/07/12 02:16:58;;;;;;;7.45;5.45;;;;;;;21.77;67.55;100112.81;6100475;23;20007;-69
2021/07/12 02:19:24;;;;;;;5.93;5.28;;;;;;;21.71;67.99;100118.41;6075265;23;20363;-69
2021/07/12 02:21:51;;;;;;;6.18;4.95;;;;;;;21.66;68.32;100106.84;6100306;23;20013;-69
2021/07/12 02:24:21;;;;;;;6.03;5.00;;;;;;;21.57;69.08;100104.81;6075307;23;20311;-69
2021/07/12 02:26:49;;;;;;;5.75;5.18;;;;;;;21.49;68.74;100101.53;6100207;23;20003;-70
2021/07/12 02:29:16;;;;;;;7.90;5.05;;;;;;;21.47;68.81;100104.09;6073884;23;20359;-70
2021/07/12 02:31:42;;;;;;;7.35;5.22;;;;;;;21.47;68.70;100094.72;6100197;23;20355;-70
2021/07/12 02:34:10;;;;;;;6.25;5.05;;;;;;;21.45;68.82;100103.00;6100106;23;20105;-70
2021/07/12 02:36:37;;;;;;;6.88;5.47;;;;;;;21.41;68.93;100106.03;6098445;23;20310;-70
2021/07/12 02:39:04;;;;;;;6.88;5.30;;;;;;;21.38;69.11;100092.72;6100033;23;20070;-69
2021/07/12 02:41:30;;;;;;;8.25;5.72;;;;;;;21.36;69.33;100085.88;6099994;23;20306;-69
2021/07/12 02:43:57;;;;;;;6.43;5.15;;;;;;;21.32;69.47;100085.25;6100012;23;20053;-70
2021/07/12 02:46:24;;;;;;;5.95;5.35;;;;;;;21.27;69.52;100093.22;6100296;23;20010;-69
2021/07/12 02:48:51;;;;;;;5.35;4.85;;;;;;;21.23;69.68;100104.06;6100342;23;20018;-69
2021/07/12 02:51:20;;;;;;;8.63;5.60;;;;;;;21.19;69.75;100109.13;6100461;23;20081;-69
2021/07/12 02:53:53;;;;;;;6.10;5.28;;;;;;;21.16;69.75;100117.88;6075128;23;20382;-69
2021/07/12 02:56:18;;;;;;;8.38;5.00;;;;;;;21.14;69.70;100115.50;6099995;23;20041;-68
2021/07/12 02:58:44;;;;;;;5.20;4.70;;;;;;;21.13;69.76;100108.19;6100290;23;20007;-67
2021/07/12 03:01:09;;;;;;;8.25;5.05;;;;;;;21.11;69.60;100113.63;6100275;23;20016;-67
2021/07/12 03:03:34;;;;;;;5.35;4.55;;;;;;;21.09;69.54;100121.06;6100213;23;20007;-65
2021/07/12 03:06:12;;;;;;;6.82;5.13;;;;;;;21.09;69.39;100118.19;6100312;23;20029;-68
2021/07/12 03:08:46;;;;;;;8.98;4.60;;;;;;;21.06;69.62;100111.38;6100125;23;20267;-68
2021/07/12 03:11:15;;;;;;;6.45;5.13;;;;;;;21.03;69.75;100117.28;6099978;23;20061;-68
2021/07/12 03:13:54;;;;;;;8.73;5.22;;;;;;;21.01;69.92;100131.25;6100226;23;20009;-68
2021/07/12 03:16:20;;;;;;;4.75;4.25;;;;;;;20.98;69.71;100121.56;6100145;23;20014;-70
2021/07/12 03:18:49;;;;;;;5.68;4.50;;;;;;;20.97;69.78;100125.72;6100192;23;20274;-69
2021/07/12 03:21:19;;;;;;;5.03;4.35;;;;;;;20.95;69.74;100116.81;6100169;23;20007;-68
2021/07/12 03:23:45;;;;;;;6.43;4.55;;;;;;;20.95;69.70;100111.13;6100051;23;20006;-67
2021/07/12 03:26:13;;;;;;;8.00;4.43;;;;;;;20.94;69.37;100130.31;6099745;23;20028;-69
2021/07/12 03:28:39;;;;;;;5.05;4.35;;;;;;;20.97;69.13;100132.22;6100150;23;20357;-68
2021/07/12 03:31:08;;;;;;;7.05;4.28;;;;;;;20.97;69.38;100131.41;6099983;23;20120;-68
2021/07/12 03:33:35;;;;;;;6.95;4.25;;;;;;;20.96;69.11;100132.69;6100067;23;20089;-68
2021/07/12 03:36:02;;;;;;;5.25;3.80;;;;;;;20.95;69.45;100122.53;6100223;23;20421;-69
2021/07/12 03:38:27;;;;;;;4.60;4.20;;;;;;;20.98;69.07;100124.44;6099784;23;20006;-70
2021/07/12 03:40:53;;;;;;;9.60;4.35;;;;;;;21.00;68.92;100121.88;6099263;23;20274;-68
2021/07/12 03:43:20;;;;;;;4.57;4.07;;;;;;;21.00;69.12;100107.59;6074846;23;20279;-69
2021/07/12 03:45:57;;;;;;;4.85;4.03;;;;;;;21.03;68.97;100098.06;6100147;23;20363;-68
2021/07/12 03:48:41;;;;;;;5.80;4.03;;;;;;;21.05;69.01;100103.28;6100184;23;20077;-69
2021/07/12 03:51:09;;;;;;;5.15;4.20;;;;;;;21.05;68.89;100101.22;6099856;23;20026;-69
2021/07/12 03:53:35;;;;;;;4.50;3.88;;;;;;;21.08;68.59;100108.84;6099960;23;20002;-67
2021/07/12 03:56:02;;;;;;;4.47;3.97;;;;;;;21.09;68.42;100104.72;6101092;23;20009;-68
2021/07/12 03:58:28;;;;;;;6.53;3.58;;;;;;;21.11;68.56;100102.19;6101483;23;20002;-69
2021/07/12 04:00:54;;;;;;;6.70;4.05;;;;;;;21.14;68.48;100106.94;6101576;23;20061;-69
2021/07/12 04:03:19;;;;;;;5.85;3.63;;;;;;;21.19;68.08;100109.13;6101936;23;20014;-69
2021/07/12 04:05:45;;;;;;;4.50;3.38;;;;;;;21.21;68.14;100108.63;6101825;23;20029;-70
2021/07/12 04:08:10;;;;;;;4.40;3.42;;;;;;;21.24;68.21;100111.34;6101409;23;20002;-70
2021/07/12 04:10:37;;;;;;;7.20;3.53;;;;;;;21.26;67.79;100108.78;6101673;23;20114;-69
2021/07/12 04:13:03;;;;;;;5.50;3.85;;;;;;;21.33;67.89;100112.56;6101691;23;20006;-67
2021/07/12 04:15:28;;;;;;;6.70;3.35;;;;;;;21.37;67.54;100108.28;6076309;23;20013;-71
2021/07/12 04:17:54;;;;;;;6.53;3.40;;;;;;;21.42;67.41;100115.41;6101645;23;20007;-69
2021/07/12 04:20:19;;;;;;;5.05;3.47;;;;;;;21.46;67.29;100107.44;6101155;23;20040;-70
2021/07/12 04:22:44;;;;;;;4.72;3.63;;;;;;;21.52;67.14;100094.06;6075897;23;20263;-66
2021/07/12 04:25:11;;;;;;;4.65;3.55;;;;;;;21.59;66.86;100091.63;6101430;23;20014;-71
2021/07/12 04:27:37;;;;;;;6.05;3.70;;;;;;;21.70;67.04;100093.16;6101571;23;20002;-69
2021/07/12 04:30:05;;;;;;;4.30;3.47;;;;;;;21.76;66.69;100085.47;6101064;23;20018;-71
2021/07/12 04:32:31;;;;;;;4.78;3.70;;;;;;;21.82;66.38;100072.88;6075065;23;20105;-70
2021/07/12 04:34:56;;;;;;;5.57;3.92;;;;;;;21.93;66.12;100068.69;6099585;23;20029;-66
2021/07/12 04:37:22;;;;;;;4.45;3.35;;;;;;;22.00;65.95;100074.03;6100466;23;20006;-72
2021/07/12 04:39:47;;;;;;;5.45;3.58;;;;;;;22.08;65.82;100078.09;6100585;23;20014;-69
2021/07/12 04:42:12;;;;;;;6.03;3.58;;;;;;;22.16;65.57;100080.09;6099991;23;20321;-71
2021/07/12 04:44:38;;;;;;;10.45;3.97;;;;;;;22.24;65.42;100077.66;6100070;23;20006;-68
2021/07/12 04:47:04;;;;;;;5.60;4.00;;;;;;;22.34;65.18;100072.63;6101263;23;20009;-69
2021/07/12 04:49:29;;;;;;;7.97;3.72;;;;;;;22.41;64.93;100078.75;6100492;23;20018;-68
2021/07/12 04:51:54;;;;;;;6.78;4.15;;;;;;;22.46;64.56;100078.09;6099232;23;20025;-70
2021/07/12 04:54:20;;;;;;;8.00;3.90;;;;;;;22.52;64.58;100067.50;6074650;23;20112;-67
2021/07/12 04:56:45;;;;;;;12.07;4.03;;;;;;;22.58;64.18;100066.81;6100761;23;20038;-69
2021/07/12 04:59:11;;;;;;;9.15;4.55;;;;;;;22.63;64.79;100060.41;6099887;23;20002;-69
2021/07/12 05:01:37;;;;;;;4.95;4.30;;;;;;;22.67;64.64;100063.84;6100568;23;20081;-69
2021/07/12 05:04:05;;;;;;;8.85;4.60;;;;;;;22.69;64.79;100049.81;6099795;23;20367;-68
2021/07/12 05:06:31;;;;;;;8.90;3.95;;;;;;;22.74;64.53;100052.00;6098613;23;20325;-70
2021/07/12 05:08:56;;;;;;;7.47;4.18;;;;;;;22.79;64.52;100054.97;6098717;23;20013;-69
2021/07/12 05:11:23;;;;;;;5.85;3.75;;;;;;;22.84;64.84;100052.72;6098962;23;20018;-68
2021/07/12 05:13:49;;;;;;;7.07;4.13;;;;;;;22.89;63.99;100058.53;6098949;23;20009;-69
2021/07/12 05:16:14;;;;;;;11.63;4.60;;;;;;;22.94;64.32;100066.44;6098881;23;20085;-68
2021/07/12 05:18:40;;;;;;;7.55;4.53;;;;;;;22.99;63.92;100062.84;6098734;23;20002;-69
2021/07/12 05:21:06;;;;;;;7.00;5.03;;;;;;;23.04;64.01;100067.13;6099705;23;20081;-69
2021/07/12 05:23:32;;;;;;;4.78;4.15;;;;;;;23.07;64.17;100069.00;6100951;23;20006;-69
2021/07/12 05:25:58;;;;;;;5.43;4.88;;;;;;;23.11;63.49;100056.03;6100851;23;20006;-68
2021/07/12 05:28:23;;;;;;;8.35;4.97;;;;;;;23.13;63.96;100050.59;6100999;23;20053;-69
2021/07/12 05:30:49;;;;;;;10.10;4.78;;;;;;;23.16;63.97;100053.75;6100906;23;20073;-69
2021/07/12 05:33:15;;;;;;;8.32;4.40;;;;;;;23.18;64.33;100069.16;6100472;23;20022;-70
2021/07/12 05:35:40;;;;;;;5.75;4.80;;;;;;;23.22;64.45;100077.53;6100758;23;20074;-69
2021/07/12 05:38:07;;;;;;;5.85;4.80;;;;;;;23.29;63.90;100072.19;6100735;23;20387;-68
2021/07/12 05:40:33;;;;;;;8.30;4.97;;;;;;;23.35;64.00;100066.53;6075472;23;20006;-69
2021/07/12 05:42:59;;;;;;;5.10;4.40;;;;;;;23.39;64.11;100065.03;6100926;23;20006;-69
2021/07/12 05:45:24;;;;;;;7.00;5.43;;;;;;;23.47;64.18;100076.88;6101285;23;20407;-69
2021/07/12 05:47:49;;;;;;;5.43;4.82;;;;;;;23.56;63.99;100073.13;6100750;23;20311;-68
2021/07/12 05:50:15;;;;;;;6.47;5.00;;;;;;;23.65;64.51;100070.13;6100425;23;20133;-69
2021/07/12 05:52:41;;;;;;;7.13;5.03;;;;;;;23.72;64.04;100070.47;6100703;23;20032;-68
2021/07/12 05:55:07;;;;;;;9.18;5.47;;;;;;;23.80;63.79;100067.16;6101129;23;19999;-70
2021/07/12 05:57:33;;;;;;;10.70;5.72;;;;;;;23.85;63.47;100072.22;6075286;23;20045;-69
2021/07/12 05:59:58;;;;;;;7.00;5.30;;;;;;;23.92;63.61;100074.66;6100823;23;20003;-68
2021/07/12 06:02:24;;;;;;;9.50;5.15;;;;;;;23.98;63.27;100072.63;6100629;23;20009;-70
2021/07/12 06:04:49;;;;;;;7.75;5.72;;;;;;;24.04;63.32;100059.13;6075073;23;20010;-69
2021/07/12 06:07:14;;;;;;;14.77;5.35;;;;;;;24.09;63.30;100071.97;6100638;23;20439;-69
2021/07/12 06:09:40;;;;;;;6.85;5.78;;;;;;;24.14;62.76;100072.03;6100631;23;20007;-67
2021/07/12 06:12:05;;;;;;;8.07;6.32;;;;;;;24.22;62.67;100073.19;6075285;23;20006;-68
2021/07/12 06:14:31;;;;;;;7.72;6.40;;;;;;;24.24;62.12;100078.41;6100582;23;20013;-68
2021/07/12 06:16:56;;;;;;;10.25;6.22;;;;;;;24.23;62.75;100094.84;6100533;23;20014;-68
2021/07/12 06:19:22;;;;;;;6.25;5.57;;;;;;;24.25;63.54;100086.53;6074719;23;20092;-69
2021/07/12 06:21:47;;;;;;;8.82;6.55;;;;;;;24.32;63.17;100088.97;6100212;23;20002;-69
2021/07/12 06:24:12;;;;;;;10.95;6.05;;;;;;;24.42;63.14;100094.56;6100701;23;20006;-69
2021/07/12 06:26:38;;;;;;;7.18;5.88;;;;;;;24.52;62.53;100090.22;6100391;23;20371;-69
2021/07/12 06:29:04;;;;;;;9.57;6.13;;;;;;;24.61;62.39;100087.97;6100400;23;20006;-69
2021/07/12 06:31:29;;;;;;;7.68;5.95;;;;;;;24.71;62.65;100088.59;6100434;23;20003;-69
2021/07/12 06:33:54;;;;;;;10.98;5.93;;;;;;;24.80;61.80;100090.50;6100439;23;20050;-69
2021/07/12 06:36:20;;;;;;;11.85;5.82;;;;;;;24.85;61.53;100098.38;6074938;23;20010;-67
2021/07/12 06:38:45;;;;;;;9.02;5.63;;;;;;;24.95;61.99;100099.78;6100433;23;20003;-68
2021/07/12 06:41:11;;;;;;;7.32;6.10;;;;;;;25.06;61.22;100104.88;6100252;23;20013;-68
2021/07/12 06:43:36;;;;;;;9.25;5.90;;;;;;;25.16;61.13;100094.75;6100506;23;20386;-69
2021/07/12 06:46:02;;;;;;;8.75;6.00;;;;;;;25.29;60.81;100098.00;6100161;23;20006;-69
2021/07/12 06:48:27;;;;;;;15.15;5.93;;;;;;;25.36;59.79;100103.25;6100285;23;20057;-69
2021/07/12 06:50:54;;;;;;;8.48;5.97;;;;;;;25.39;59.78;100096.47;6075108;23;20017;-68
2021/07/12 06:53:19;;;;;;;7.38;5.80;;;;;;;25.38;59.20;100097.00;6100231;23;20089;-69
2021/07/12 06:55:44;;;;;;;6.68;5.80;;;;;;;25.36;59.76;100100.38;6100458;23;20361;-69
2021/07/12 06:58:12;;;;;;;11.88;6.15;;;;;;;25.34;60.21;100094.38;6100280;23;20032;-68
2021/07/12 07:00:39;;;;;;;9.85;5.70;;;;;;;25.36;59.89;100106.13;6100177;23;20003;-69
2021/07/12 07:03:05;;;;;;;11.63;6.40;;;;;;;25.36;59.27;100100.38;6100045;23;20029;-69
2021/07/12 07:05:30;;;;;;;10.50;6.10;;;;;;;25.36;59.58;100100.38;6100413;23;20363;-69
2021/07/12 07:07:56;;;;;;;10.50;5.85;;;;;;;25.40;59.90;100098.06;6100089;23;20003;-69
2021/07/12 07:10:21;;;;;;;6.50;5.78;;;;;;;25.42;59.54;100091.78;6100354;23;20030;-68
2021/07/12 07:12:47;;;;;;;8.80;5.85;;;;;;;25.43;59.44;100097.03;6074980;23;19999;-69
2021/07/12 07:15:13;;;;;;;6.18;5.53;;;;;;;25.41;58.95;100087.34;6100329;23;20085;-69
2021/07/12 07:17:38;;;;;;;8.43;5.72;;;;;;;25.41;59.14;100093.09;6099888;23;19998;-69
2021/07/12 07:20:05;;;;;;;8.07;5.80;;;;;;;25.42;59.24;100083.16;6100095;23;20061;-69
2021/07/12 07:22:31;;;;;;;6.18;5.57;;;;;;;25.46;59.83;100078.72;6100192;23;20003;-68
2021/07/12 07:24:56;;;;;;;6.80;5.82;;;;;;;25.53;60.64;100089.78;6100009;23;20007;-69
2021/07/12 07:27:21;;;;;;;8.07;5.93;;;;;;;25.60;59.03;100085.63;6100221;23;20010;-69
2021/07/12 07:29:47;;;;;;;9.93;6.18;;;;;;;25.63;58.67;100086.69;6100448;23;20018;-68
2021/07/12 07:32:12;;;;;;;8.98;6.32;;;;;;;25.65;57.86;100081.22;6101633;23;20002;-69
2021/07/12 07:34:38;;;;;;;7.95;6.18;;;;;;;25.69;58.46;100084.66;6102119;23;20018;-68
2021/07/12 07:37:03;;;;;;;7.97;6.05;;;;;;;25.74;58.72;100081.81;6102065;23;20002;-68
2021/07/12 07:39:29;;;;;;;9.75;5.53;;;;;;;25.80;58.81;100085.50;6101946;23;20006;-69
2021/07/12 07:41:55;;;;;;;7.20;6.30;;;;;;;25.83;58.26;100078.72;6102088;23;20057;-69
2021/07/12 07:44:21;;;;;;;8.48;6.07;;;;;;;25.86;57.79;100082.66;6101972;23;20002;-69
2021/07/12 07:46:46;;;;;;;7.78;5.65;;;;;;;25.90;57.60;100086.06;6076602;23;20085;-68
2021/07/12 07:49:11;;;;;;;9.63;6.35;;;;;;;25.96;57.64;100084.00;6076425;23;19999;-68
2021/07/12 07:51:37;;;;;;;9.13;6.72;;;;;;;26.01;58.19;100083.22;6101940;23;20007;-68
2021/07/12 07:54:06;;;;;;;10.70;6.28;;;;;;;26.11;59.09;100081.72;6102441;23;20002;-69
2021/07/12 07:56:31;;;;;;;12.45;6.82;;;;;;;26.19;57.58;100087.75;6101813;23;20045;-69
2021/07/12 07:58:57;;;;;;;9.05;5.93;;;;;;;26.26;57.97;100083.56;6076711;23;20002;-70
2021/07/12 08:01:22;;;;;;;16.08;6.13;;;;;;;26.38;59.14;100077.38;6101421;23;20006;-70
2021/07/12 08:03:48;;;;;;;13.52;5.60;;;;;;;26.51;58.26;100073.97;6102080;23;20311;-68
2021/07/12 08:06:17;;;;;;;10.20;6.53;;;;;;;26.62;56.18;100082.66;6076400;23;20033;-70
2021/07/12 08:08:42;;;;;;;11.95;6.10;;;;;;;26.73;54.41;100079.00;6102086;23;20006;-69
2021/07/12 08:11:07;;;;;;;10.05;6.07;;;;;;;26.79;54.62;100083.44;6101673;23;20266;-69
2021/07/12 08:13:33;;;;;;;9.55;6.13;;;;;;;26.85;55.69;100074.03;6101967;23;20109;-69
2021/07/12 08:15:58;;;;;;;9.63;6.18;;;;;;;26.90;54.15;100076.91;6101575;23;20002;-69
2021/07/12 08:18:23;;;;;;;8.35;6.15;;;;;;;26.96;55.50;100077.69;6101593;23;20009;-66
2021/07/12 08:20:49;;;;;;;7.57;6.13;;;;;;;27.00;53.73;100074.56;6101893;23;20159;-69
2021/07/12 08:23:16;;;;;;;9.02;6.13;;;;;;;27.04;53.49;100075.09;6101528;23;20006;-69
2021/07/12 08:25:42;;;;;;;11.60;6.40;;;;;;;27.14;53.53;100085.06;6101733;23;20009;-69
2021/07/12 08:28:07;;;;;;;9.40;5.07;;;;;;;27.20;51.86;100080.06;6101447;23;20006;-68
2021/07/12 08:30:33;;;;;;;6.38;5.75;;;;;;;27.25;52.45;100084.25;6101712;23;20006;-69
2021/07/12 08:32:58;;;;;;;10.25;6.22;;;;;;;27.31;52.48;100079.25;6101741;23;20033;-68
2021/07/12 08:35:24;;;;;;;9.82;5.35;;;;;;;27.37;52.78;100085.81;6101297;23;20367;-70
2021/07/12 08:37:50;;;;;;;8.18;5.93;;;;;;;27.39;52.22;100080.28;6101508;23;20014;-69
2021/07/12 08:40:18;;;;;;;11.43;5.68;;;;;;;27.44;52.56;100075.84;6076383;23;20006;-69
2021/07/12 08:42:44;;;;;;;10.88;5.93;;;;;;;27.55;53.10;100090.25;6101048;23;20002;-69
2021/07/12 08:45:10;;;;;;;9.05;6.45;;;;;;;27.58;52.19;100086.28;6101626;23;20011;-68
2021/07/12 08:47:36;;;;;;;11.65;5.93;;;;;;;27.70;50.87;100085.00;6101439;23;20729;-70
2021/07/12 08:50:04;;;;;;;10.63;6.13;;;;;;;27.78;50.66;100083.13;6075943;23;20013;-68
2021/07/12 08:52:29;;;;;;;9.93;5.57;;;;;;;27.84;49.94;100083.09;6101360;23;20006;-70
2021/07/12 08:54:55;;;;;;;8.02;5.78;;;;;;;27.94;49.79;100082.28;6101511;23;20240;-69
2021/07/12 08:57:20;;;;;;;14.18;6.05;;;;;;;28.01;49.48;100080.94;6101243;23;20617;-68
2021/07/12 08:59:46;;;;;;;8.93;5.50;;;;;;;28.07;50.84;100078.03;6101235;23;20034;-69
2021/07/12 09:02:12;;;;;;;6.35;5.50;;;;;;;28.17;49.31;100076.38;6101585;23;20077;-67
2021/07/12 09:04:44;;;;;;;11.07;6.13;;;;;;;28.23;48.53;100077.16;6101591;23;20010;-69
2021/07/12 09:07:19;;;;;;;8.70;5.47;;;;;;;28.29;50.39;100077.94;6100491;23;20022;-67
2021/07/12 09:10:04;;;;;;;8.77;5.75;;;;;;;28.34;49.29;100080.00;6101220;23;20010;-71
2021/07/12 09:12:43;;;;;;;7.18;5.50;;;;;;;28.41;49.02;100082.31;6101000;23;20039;-67
2021/07/12 09:15:14;;;;;;;6.65;5.63;;;;;;;28.53;49.33;100083.06;6101136;23;20077;-70
2021/07/12 09:17:42;;;;;;;10.50;5.93;;;;;;;28.58;49.01;100077.22;6101184;23;20085;-69
2021/07/12 09:20:10;;;;;;;11.68;6.45;;;;;;;28.61;48.52;100081.94;6101082;23;20003;-69
2021/07/12 09:22:38;;;;;;;9.50;5.60;;;;;;;28.61;47.66;100084.03;6100826;23;20240;-70
2021/07/12 09:25:10;;;;;;;7.20;5.70;;;;;;;28.62;49.15;100091.41;6075901;23;20367;-66
2021/07/12 09:27:40;;;;;;;7.22;5.60;;;;;;;28.65;49.17;100080.88;6100876;23;20018;-67
2021/07/12 09:30:19;;;;;;;7.07;5.55;;;;;;;28.69;48.82;100087.13;6100711;23;20002;-69
2021/07/12 09:32:46;;;;;;;6.25;4.95;;;;;;;28.73;47.95;100070.28;6101245;23;20026;-71
2021/07/12 09:35:11;;;;;;;12.50;5.35;;;;;;;28.77;48.63;100083.16;6100891;23;20003;-70
2021/07/12 09:37:39;;;;;;;12.88;5.63;;;;;;;28.81;48.49;100074.19;6100681;23;20008;-69
2021/07/12 09:40:13;;;;;;;6.47;5.30;;;;;;;28.82;48.38;100079.44;6101023;23;20006;-68
2021/07/12 09:42:41;;;;;;;7.38;5.35;;;;;;;28.82;47.89;100072.84;6100296;23;20002;-69
2021/07/12 09:45:12;;;;;;;6.32;5.10;;;;;;;28.85;48.58;100077.59;6100916;23;20013;-68
2021/07/12 09:47:40;;;;;;;7.47;5.22;;;;;;;28.84;47.69;100073.88;6075538;23;20009;-69
2021/07/12 09:50:11;;;;;;;7.32;5.22;;;;;;;28.86;48.50;100079.16;6100643;23;20007;-68
2021/07/12 09:52:47;;;;;;;;;;;;;;;28.86;47.67;100077.06;6101238;23;20003;-70
2021/07/12 09:55:24;;;;;;;7.82;5.07;;;;;;;28.84;47.96;100070.22;6100803;23;20297;-69
2021/07/12 09:58:09;;;;;;;10.98;5.72;;;;;;;28.85;47.68;100075.50;6100674;23;20111;-69
2021/07/12 10:00:37;;;;;;;6.80;5.18;;;;;;;28.89;48.30;100072.28;6100592;23;20026;-69
2021/07/12 10:03:02;;;;;;;5.85;5.30;;;;;;;28.93;49.14;100069.91;6100596;23;20058;-68
2021/07/12 10:05:28;;;;;;;8.18;5.85;;;;;;;29.03;48.48;100062.44;6100759;23;20013;-69
2021/07/12 10:07:54;;;;;;;7.50;5.00;;;;;;;29.13;48.05;100063.69;6100435;23;20256;-69
2021/07/12 10:10:20;;;;;;;6.28;5.03;;;;;;;29.22;48.87;100066.22;6100462;23;20051;-69
2021/07/12 10:12:46;;;;;;;9.90;4.80;;;;;;;29.30;47.88;100065.59;6075540;23;20359;-69
2021/07/12 10:15:13;;;;;;;11.07;5.63;;;;;;;29.33;47.17;100064.53;6075282;23;20085;-69
2021/07/12 10:17:43;;;;;;;11.93;5.80;;;;;;;29.39;47.35;100062.38;6100569;23;20002;-69
2021/07/12 10:20:09;;;;;;;9.52;5.20;;;;;;;29.42;46.68;100062.06;6100642;23;20008;-68
2021/07/12 10:22:36;;;;;;;6.63;4.57;;;;;;;29.44;46.89;100061.53;6100338;23;20009;-69
2021/07/12 10:25:13;;;;;;;10.32;6.15;;;;;;;29.47;46.80;100057.56;6100282;23;20018;-69
2021/07/12 10:27:50;;;;;;;12.13;5.18;;;;;;;29.57;47.08;100055.88;6100624;23;20056;-69
2021/07/12 10:30:35;;;;;;;9.30;5.05;;;;;;;29.63;45.58;100053.72;6100275;23;20489;-69
2021/07/12 10:33:03;;;;;;;15.57;5.70;;;;;;;29.66;46.16;100043.94;6100537;23;20010;-68
2021/07/12 10:35:46;;;;;;;7.93;5.30;;;;;;;29.76;45.77;100045.13;6100323;23;20006;-69
2021/07/12 10:38:15;;;;;;;6.35;5.45;;;;;;;29.80;46.61;100039.00;6100395;23;20389;-68
2021/07/12 10:41:01;;;;;;;8.73;5.50;;;;;;;29.81;45.55;100041.38;6074758;23;20180;-69
2021/07/12 10:43:42;;;;;;;8.50;5.90;;;;;;;29.84;46.43;100043.16;6100516;23;20007;-69
2021/07/12 10:46:08;;;;;;;13.98;6.60;;;;;;;29.96;46.48;100038.03;6100313;23;20003;-69
2021/07/12 10:48:39;;;;;;;11.40;6.00;;;;;;;30.05;46.66;100036.88;6100461;23;20006;-69
2021/07/12 10:51:21;;;;;;;6.78;5.45;;;;;;;30.16;45.06;100028.03;6100055;23;20061;-69
2021/07/12 10:54:07;;;;;;;14.65;5.28;;;;;;;30.15;44.55;100032.28;6100212;23;20002;-69
2021/07/12 10:56:50;;;;;;;11.32;5.32;;;;;;;30.18;44.97;100027.50;6100247;23;20414;-69
2021/07/12 10:59:36;;;;;;;13.23;5.57;;;;;;;30.26;46.31;100026.31;6100362;23;20017;-70
2021/07/12 11:02:25;;;;;;;10.13;6.13;;;;;;;30.33;43.90;100028.56;6100376;23;20003;-69
2021/07/12 11:05:00;;;;;;;8.88;5.70;;;;;;;30.35;44.84;100025.91;6081932;23;20089;-69
2021/07/12 11:07:41;;;;;;;6.53;5.22;;;;;;;30.34;44.49;100027.22;6100392;23;20266;-68
2021/07/12 11:10:31;;;;;;;10.18;5.15;;;;;;;30.36;44.38;100020.88;6100018;23;20003;-69
2021/07/12 11:12:58;;;;;;;7.00;5.10;;;;;;;30.33;44.93;100016.97;6075013;23;20061;-69
2021/07/12 11:15:24;;;;;;;6.15;5.05;;;;;;;30.36;45.47;100015.88;6100092;23;20007;-69
2021/07/12 11:18:01;;;;;;;12.43;5.80;;;;;;;30.42;46.31;100012.91;6100411;23;20073;-69
2021/07/12 11:20:53;;;;;;;9.50;5.38;;;;;;;30.47;44.60;100014.94;6100358;23;20006;-69
2021/07/12 11:23:40;;;;;;;9.57;5.57;;;;;;;30.56;43.38;100019.53;6099806;23;20375;-69
2021/07/12 11:26:23;;;;;;;7.45;5.60;;;;;;;30.55;43.82;100009.25;6075020;23;20013;-69
2021/07/12 11:28:52;;;;;;;6.43;5.32;;;;;;;30.55;43.19;100009.25;6100346;23;20038;-69
2021/07/12 11:31:56;;;;;;;13.13;5.80;;;;;;;30.62;44.19;100014.44;6100163;23;20022;-69
2021/07/12 11:34:33;;;;;;;10.60;6.00;;;;;;;30.70;43.13;100009.59;6099887;23;20096;-69